createdAt,value
2019-05-28T00:01:50.856Z,67.05
2019-05-28T00:04:20.020Z,66.92
2019-05-28T00:06:47.078Z,66.94
2019-05-28T00:09:14.558Z,66.38
2019-05-28T00:11:43.380Z,67.05
2019-05-28T00:14:10.425Z,66.88
2019-05-28T00:16:37.507Z,66.66
2019-05-28T00:19:04.551Z,66.64
2019-05-28T00:21:32.029Z,66.49
2019-05-28T00:23:59.123Z,66.45
2019-05-28T00:26:30.722Z,66.27
2019-05-28T00:28:57.755Z,66.21
2019-05-28T00:31:24.831Z,66.59
2019-05-28T00:33:52.969Z,66.38
2019-05-28T00:36:20.015Z,66.27
2019-05-28T00:38:47.080Z,66.24
2019-05-28T00:41:20.067Z,66.48
2019-05-28T00:43:47.099Z,66.51
2019-05-28T00:46:14.592Z,66.45
2019-05-28T00:48:43.905Z,66.35
2019-05-28T00:51:16.000Z,66.31
2019-05-28T00:53:46.136Z,66.63
2019-05-28T00:56:13.697Z,66.63
2019-05-28T00:58:40.930Z,66.54
2019-05-28T01:01:08.104Z,66.34
2019-05-28T01:03:35.157Z,66.68
2019-05-28T01:06:02.225Z,66.66
2019-05-28T01:08:30.394Z,66.52
2019-05-28T01:10:58.728Z,66.42
2019-05-28T01:13:29.813Z,66.32
2019-05-28T01:15:57.140Z,66.23
2019-05-28T01:18:25.510Z,66.20
2019-05-28T01:20:52.538Z,66.14
2019-05-28T01:23:21.585Z,66.08
2019-05-28T01:25:49.506Z,65.97
2019-05-28T01:28:16.526Z,65.94
2019-05-28T01:30:54.726Z,65.88
2019-05-28T01:33:18.004Z,64.18
2019-05-28T01:35:45.082Z,65.88
2019-05-28T01:38:14.138Z,65.93
2019-05-28T01:40:41.464Z,65.83
2019-05-28T01:43:08.524Z,65.83
2019-05-28T01:45:39.627Z,65.78
2019-05-28T01:48:16.362Z,65.64
2019-05-28T01:50:43.410Z,65.71
2019-05-28T01:53:10.470Z,65.79
2019-05-28T01:55:37.626Z,65.70
2019-05-28T01:58:04.767Z,65.91
2019-05-28T02:00:31.958Z,66.02
2019-05-28T02:02:58.999Z,66.06
2019-05-28T02:05:26.050Z,66.09
2019-05-28T02:07:53.125Z,66.18
2019-05-28T02:10:22.078Z,66.18
2019-05-28T02:12:49.164Z,66.14
2019-05-28T02:15:16.551Z,66.18
2019-05-28T02:17:43.612Z,66.24
2019-05-28T02:20:10.852Z,66.26
2019-05-28T02:22:37.891Z,66.26
2019-05-28T02:25:06.328Z,66.20
2019-05-28T02:27:38.446Z,66.45
2019-05-28T02:30:09.164Z,66.23
2019-05-28T02:32:36.301Z,66.39
2019-05-28T02:35:04.148Z,66.46
2019-05-28T02:37:32.342Z,66.43
2019-05-28T02:39:59.396Z,66.34
2019-05-28T02:42:26.514Z,66.19
2019-05-28T02:44:53.630Z,66.02
2019-05-28T02:47:20.662Z,65.89
2019-05-28T02:49:47.720Z,65.81
2019-05-28T02:52:16.003Z,65.85
2019-05-28T02:54:43.047Z,65.80
2019-05-28T02:57:11.500Z,65.72
2019-05-28T02:59:44.875Z,65.48
2019-05-28T03:02:14.338Z,65.48
2019-05-28T03:04:43.411Z,65.47
2019-05-28T03:07:14.358Z,65.49
2019-05-28T03:09:45.022Z,65.44
2019-05-28T03:12:12.083Z,65.42
2019-05-28T03:14:39.485Z,65.34
2019-05-28T03:17:08.483Z,65.35
2019-05-28T03:19:42.313Z,65.28
2019-05-28T03:22:12.177Z,65.25
2019-05-28T03:24:40.714Z,65.25
2019-05-28T03:27:07.757Z,65.23
2019-05-28T03:29:35.543Z,65.19
2019-05-28T03:32:07.632Z,65.30
2019-05-28T03:34:37.834Z,65.29
2019-05-28T03:37:05.376Z,65.29
2019-05-28T03:39:33.586Z,65.29
2019-05-28T03:42:00.679Z,65.33
2019-05-28T03:44:27.739Z,65.37
2019-05-28T03:46:57.856Z,65.33
2019-05-28T03:49:25.014Z,65.38
2019-05-28T03:51:52.072Z,65.41
2019-05-28T03:54:19.151Z,65.23
2019-05-28T03:56:46.202Z,65.23
2019-05-28T03:59:13.320Z,65.45
2019-05-28T04:01:40.527Z,65.52
2019-05-28T04:04:07.562Z,65.52
2019-05-28T04:06:34.791Z,65.61
2019-05-28T04:09:01.991Z,65.61
2019-05-28T04:11:43.804Z,65.55
2019-05-28T04:13:59.241Z,65.68
2019-05-28T04:16:26.312Z,65.89
2019-05-28T04:18:53.809Z,65.79
2019-05-28T04:21:30.434Z,65.92
2019-05-28T04:24:02.325Z,65.88
2019-05-28T04:26:29.375Z,65.68
2019-05-28T04:28:56.450Z,65.49
2019-05-28T04:31:23.488Z,65.32
2019-05-28T04:33:50.529Z,65.11
2019-05-28T04:36:17.609Z,64.95
2019-05-28T04:38:44.649Z,64.49
2019-05-28T04:41:15.819Z,64.46
2019-05-28T04:43:50.133Z,64.28
2019-05-28T04:46:17.175Z,64.11
2019-05-28T04:48:44.242Z,63.90
2019-05-28T04:51:11.386Z,63.73
2019-05-28T04:53:41.510Z,63.29
2019-05-28T04:56:08.586Z,63.02
2019-05-28T04:58:35.669Z,62.67
2019-05-28T05:01:05.326Z,61.82
2019-05-28T05:03:32.408Z,60.63
2019-05-28T05:05:59.437Z,58.64
2019-05-28T05:08:26.474Z,58.30
2019-05-28T05:11:02.485Z,58.05
2019-05-28T05:13:37.037Z,56.56
2019-05-28T05:16:04.083Z,56.68
2019-05-28T05:18:31.094Z,56.42
2019-05-28T05:21:01.210Z,55.67
2019-05-28T05:23:29.476Z,56.25
2019-05-28T05:25:56.485Z,55.46
2019-05-28T05:28:23.539Z,54.87
2019-05-28T05:30:51.847Z,54.47
2019-05-28T05:33:20.560Z,54.51
2019-05-28T05:35:47.790Z,53.79
2019-05-28T05:38:14.846Z,54.06
2019-05-28T05:40:42.049Z,54.58
2019-05-28T05:43:09.072Z,54.02
2019-05-28T05:45:37.408Z,53.71
2019-05-28T05:48:04.444Z,55.22
2019-05-28T05:50:31.469Z,55.30
2019-05-28T05:53:02.629Z,55.50
2019-05-28T05:55:29.743Z,55.66
2019-05-28T05:57:57.990Z,55.67
2019-05-28T06:00:27.945Z,56.84
2019-05-28T06:02:54.996Z,57.03
2019-05-28T06:05:28.476Z,55.80
2019-05-28T06:07:55.568Z,56.49
2019-05-28T06:10:22.667Z,55.71
2019-05-28T06:12:49.706Z,54.56
2019-05-28T06:15:23.845Z,53.83
2019-05-28T06:17:50.896Z,53.85
2019-05-28T06:20:18.517Z,54.66
2019-05-28T06:22:45.542Z,56.14
2019-05-28T06:25:14.526Z,54.68
2019-05-28T06:27:41.531Z,53.98
2019-05-28T06:30:08.754Z,53.75
2019-05-28T06:32:37.119Z,53.49
2019-05-28T06:35:06.027Z,53.66
2019-05-28T06:37:36.002Z,53.68
2019-05-28T06:40:03.966Z,52.48
2019-05-28T06:42:34.318Z,51.52
2019-05-28T06:44:59.950Z,51.19
2019-05-28T06:47:27.019Z,51.73
2019-05-28T06:49:56.958Z,51.43
2019-05-28T06:52:26.459Z,50.24
2019-05-28T06:54:55.822Z,49.24
2019-05-28T06:57:25.374Z,48.02
2019-05-28T06:59:52.513Z,48.53
2019-05-28T07:02:23.193Z,46.41
2019-05-28T07:04:50.263Z,47.77
2019-05-28T07:07:17.325Z,49.46
2019-05-28T07:09:44.383Z,48.18
2019-05-28T07:12:11.442Z,48.30
2019-05-28T07:14:38.491Z,48.30
2019-05-28T07:17:05.581Z,46.33
2019-05-28T07:19:34.411Z,47.15
2019-05-28T07:22:04.507Z,45.78
2019-05-28T07:24:31.592Z,47.28
2019-05-28T07:26:58.640Z,47.87
2019-05-28T07:29:25.680Z,44.57
2019-05-28T07:31:52.728Z,44.62
2019-05-28T07:34:30.165Z,45.40
2019-05-28T07:36:48.704Z,46.28
2019-05-28T07:39:15.757Z,45.72
2019-05-28T07:41:45.305Z,46.13
2019-05-28T07:44:15.239Z,46.45
2019-05-28T07:46:42.327Z,46.37
2019-05-28T07:49:09.405Z,45.06
2019-05-28T07:51:36.475Z,44.22
2019-05-28T07:54:03.722Z,43.22
2019-05-28T07:56:33.698Z,44.81
2019-05-28T07:59:03.600Z,44.23
2019-05-28T08:01:30.761Z,44.43
2019-05-28T08:03:57.842Z,44.53
2019-05-28T08:06:30.223Z,44.73
2019-05-28T08:08:57.317Z,44.12
2019-05-28T08:11:24.373Z,43.83
2019-05-28T08:13:52.522Z,44.35
2019-05-28T08:16:24.286Z,44.76
2019-05-28T08:18:51.148Z,45.52
2019-05-28T08:21:18.153Z,45.89
2019-05-28T08:23:51.604Z,45.68
2019-05-28T08:26:18.644Z,47.40
2019-05-28T08:28:49.687Z,45.08
2019-05-28T08:31:21.218Z,45.58
2019-05-28T08:33:48.292Z,46.02
2019-05-28T08:36:15.318Z,48.03
2019-05-28T08:38:42.360Z,47.30
2019-05-28T08:41:09.434Z,47.83
2019-05-28T08:43:36.463Z,46.65
2019-05-28T08:46:08.416Z,48.59
2019-05-28T08:48:38.060Z,47.53
2019-05-28T08:51:05.082Z,47.12
2019-05-28T08:53:32.107Z,45.54
2019-05-28T08:56:01.689Z,46.99
2019-05-28T08:58:28.730Z,47.18
2019-05-28T09:00:55.836Z,45.58
2019-05-28T09:03:22.892Z,46.26
2019-05-28T09:05:49.914Z,46.72
2019-05-28T09:08:17.029Z,47.82
2019-05-28T09:10:46.849Z,46.23
2019-05-28T09:13:16.700Z,46.09
2019-05-28T09:15:43.706Z,48.24
2019-05-28T09:18:14.801Z,46.29
2019-05-28T09:20:44.904Z,47.01
2019-05-28T09:23:13.405Z,46.76
2019-05-28T09:25:40.423Z,48.07
2019-05-28T09:28:07.421Z,47.09
2019-05-28T09:30:34.494Z,48.53
2019-05-28T09:33:01.574Z,47.72
2019-05-28T09:35:43.357Z,47.90
2019-05-28T09:37:58.838Z,48.18
2019-05-28T09:40:25.958Z,47.33
2019-05-28T09:42:53.016Z,47.39
2019-05-28T09:45:23.349Z,48.93
2019-05-28T09:47:50.565Z,48.54
2019-05-28T09:50:29.929Z,47.89
2019-05-28T09:52:55.538Z,47.68
2019-05-28T09:55:22.726Z,47.58
2019-05-28T09:57:49.794Z,50.15
2019-05-28T10:00:21.115Z,48.45
2019-05-28T10:02:48.227Z,47.39
2019-05-28T10:05:15.313Z,48.33
2019-05-28T10:07:43.581Z,48.92
2019-05-28T10:10:10.709Z,48.68
2019-05-28T10:12:37.732Z,47.05
2019-05-28T10:15:04.819Z,46.43
2019-05-28T10:17:35.924Z,48.01
2019-05-28T10:20:06.633Z,48.00
2019-05-28T10:22:33.694Z,48.21
2019-05-28T10:25:00.758Z,48.96
2019-05-28T10:27:35.289Z,46.76
2019-05-28T10:30:02.732Z,48.80
2019-05-28T10:32:39.917Z,48.96
2019-05-28T10:35:07.234Z,47.44
2019-05-28T10:37:34.258Z,47.64
2019-05-28T10:40:01.225Z,48.09
2019-05-28T10:42:28.237Z,47.11
2019-05-28T10:44:55.248Z,47.59
2019-05-28T10:47:22.233Z,47.45
2019-05-28T10:49:50.940Z,46.02
2019-05-28T10:52:18.175Z,47.29
2019-05-28T10:54:45.170Z,48.33
2019-05-28T10:57:12.190Z,50.35
2019-05-28T10:59:39.235Z,50.59
2019-05-28T11:02:06.259Z,51.25
2019-05-28T11:04:33.252Z,51.96
2019-05-28T11:07:03.614Z,49.94
2019-05-28T11:09:30.599Z,49.65
2019-05-28T11:12:02.735Z,51.32
2019-05-28T11:14:29.973Z,49.56
2019-05-28T11:16:57.017Z,50.18
2019-05-28T11:19:24.025Z,50.21
2019-05-28T11:21:51.049Z,47.16
2019-05-28T11:24:18.302Z,48.21
2019-05-28T11:26:45.278Z,48.79
2019-05-28T11:29:12.362Z,49.00
2019-05-28T11:31:39.358Z,48.01
2019-05-28T11:34:06.350Z,50.37
2019-05-28T11:36:33.395Z,50.07
2019-05-28T11:39:00.384Z,50.34
2019-05-28T11:41:41.327Z,47.87
2019-05-28T11:43:58.040Z,50.14
2019-05-28T11:46:25.035Z,50.24
2019-05-28T11:48:52.042Z,51.09
2019-05-28T11:51:19.059Z,50.54
2019-05-28T11:53:46.063Z,49.24
2019-05-28T11:56:13.326Z,49.09
2019-05-28T11:58:40.308Z,49.86
2019-05-28T12:01:13.363Z,48.44
2019-05-28T12:03:42.744Z,49.40
2019-05-28T12:06:09.752Z,50.85
2019-05-28T12:08:36.743Z,50.57
2019-05-28T12:11:05.962Z,50.08
2019-05-28T12:13:32.989Z,49.57
2019-05-28T12:15:59.958Z,50.68
2019-05-28T12:18:26.959Z,52.63
2019-05-28T12:20:57.422Z,50.93
2019-05-28T12:23:27.195Z,50.57
2019-05-28T12:25:54.220Z,50.98
2019-05-28T12:28:37.073Z,50.36
2019-05-28T12:30:50.127Z,50.10
2019-05-28T12:33:19.111Z,50.87
2019-05-28T12:35:49.675Z,51.86
2019-05-28T12:38:16.691Z,47.79
2019-05-28T12:40:47.651Z,48.81
2019-05-28T12:43:12.930Z,49.66
2019-05-28T12:45:39.958Z,49.55
2019-05-28T12:48:12.663Z,48.56
2019-05-28T12:50:36.177Z,48.01
2019-05-28T12:53:05.276Z,49.90
2019-05-28T12:55:32.226Z,49.45
2019-05-28T12:58:00.093Z,48.96
2019-05-28T13:00:31.893Z,50.61
2019-05-28T13:02:59.069Z,50.59
2019-05-28T13:05:27.369Z,49.74
2019-05-28T13:08:08.499Z,50.09
2019-05-28T13:10:28.827Z,50.16
2019-05-28T13:12:55.889Z,49.88
2019-05-28T13:15:22.912Z,50.01
2019-05-28T13:17:52.939Z,49.06
2019-05-28T13:20:20.112Z,49.93
2019-05-28T13:22:47.142Z,50.20
2019-05-28T13:25:19.304Z,50.29
2019-05-28T13:27:46.347Z,51.09
2019-05-28T13:30:15.766Z,50.68
2019-05-28T13:32:46.239Z,49.66
2019-05-28T13:35:14.265Z,51.65
2019-05-28T13:37:41.309Z,50.16
2019-05-28T13:40:12.879Z,49.09
2019-05-28T13:42:39.844Z,49.61
2019-05-28T13:45:09.164Z,48.80
2019-05-28T13:47:36.194Z,49.72
2019-05-28T13:50:04.017Z,51.36
2019-05-28T13:52:31.135Z,49.86
2019-05-28T13:54:58.119Z,49.17
2019-05-28T13:57:25.127Z,50.50
2019-05-28T13:59:58.370Z,49.32
2019-05-28T14:02:21.058Z,47.92
2019-05-28T14:04:48.082Z,46.74
2019-05-28T14:07:15.046Z,46.77
2019-05-28T14:09:42.063Z,47.14
2019-05-28T14:12:09.065Z,49.08
2019-05-28T14:14:37.774Z,47.64
2019-05-28T14:17:04.870Z,49.34
2019-05-28T14:19:31.858Z,47.22
2019-05-28T14:21:58.841Z,47.28
2019-05-28T14:24:33.298Z,47.58
2019-05-28T14:27:00.509Z,47.19
2019-05-28T14:29:27.529Z,47.36
2019-05-28T14:31:54.525Z,48.38
2019-05-28T14:34:21.516Z,48.15
2019-05-28T14:36:48.509Z,48.67
2019-05-28T14:39:15.557Z,49.53
2019-05-28T14:41:42.549Z,48.44
2019-05-28T14:44:14.981Z,48.70
2019-05-28T14:46:42.003Z,50.18
2019-05-28T14:49:09.010Z,51.31
2019-05-28T14:51:36.027Z,50.31
2019-05-28T14:54:03.248Z,49.65
2019-05-28T14:56:31.353Z,47.77
2019-05-28T14:58:58.391Z,49.65
2019-05-28T15:01:25.416Z,48.93
2019-05-28T15:03:59.954Z,48.48
2019-05-28T15:06:32.471Z,49.37
2019-05-28T15:08:59.475Z,50.22
2019-05-28T15:11:26.475Z,50.78
2019-05-28T15:13:53.527Z,49.85
2019-05-28T15:16:20.544Z,51.48
2019-05-28T15:18:47.611Z,50.19
2019-05-28T15:21:17.345Z,48.32
2019-05-28T15:23:44.364Z,48.82
2019-05-28T15:26:14.196Z,50.77
2019-05-28T15:28:43.456Z,51.61
2019-05-28T15:31:10.481Z,52.46
2019-05-28T15:33:37.492Z,50.78
2019-05-28T15:36:04.716Z,51.31
2019-05-28T15:38:32.048Z,49.28
2019-05-28T15:40:59.037Z,49.37
2019-05-28T15:43:34.090Z,49.72
2019-05-28T15:46:01.195Z,50.30
2019-05-28T15:48:30.836Z,49.87
2019-05-28T15:50:57.842Z,49.60
2019-05-28T15:53:24.814Z,51.25
2019-05-28T15:55:51.812Z,50.76
2019-05-28T15:58:20.140Z,50.26
2019-05-28T16:00:47.263Z,52.64
2019-05-28T16:03:15.359Z,51.55
2019-05-28T16:05:45.582Z,51.37
2019-05-28T16:08:15.083Z,52.25
2019-05-28T16:10:42.099Z,52.48
2019-05-28T16:13:09.093Z,51.16
2019-05-28T16:15:36.101Z,51.33
2019-05-28T16:18:05.676Z,50.22
2019-05-28T16:20:35.056Z,50.45
2019-05-28T16:23:02.105Z,50.44
2019-05-28T16:25:29.113Z,50.99
2019-05-28T16:27:59.766Z,50.71
2019-05-28T16:30:26.757Z,51.39
2019-05-28T16:32:53.837Z,51.33
2019-05-28T16:35:20.874Z,51.91
2019-05-28T16:37:54.745Z,52.47
2019-05-28T16:40:21.684Z,51.80
2019-05-28T16:42:48.711Z,51.56
2019-05-28T16:45:18.799Z,51.96
2019-05-28T16:47:45.778Z,52.79
2019-05-28T16:50:14.601Z,52.91
2019-05-28T16:52:44.452Z,52.34
2019-05-28T16:55:11.745Z,53.02
2019-05-28T16:57:41.065Z,53.75
2019-05-28T17:00:15.504Z,53.64
2019-05-28T17:02:42.611Z,53.41
2019-05-28T17:05:10.209Z,53.40
2019-05-28T17:07:37.229Z,54.76
2019-05-28T17:10:07.494Z,53.58
2019-05-28T17:12:34.724Z,52.78
2019-05-28T17:15:06.043Z,53.47
2019-05-28T17:17:33.094Z,53.48
2019-05-28T17:20:01.914Z,52.43
2019-05-28T17:22:29.076Z,51.86
2019-05-28T17:24:56.079Z,52.38
2019-05-28T17:27:23.099Z,52.61
2019-05-28T17:29:53.169Z,51.97
2019-05-28T17:32:22.201Z,52.95
2019-05-28T17:34:53.874Z,51.59
2019-05-28T17:37:20.859Z,52.24
2019-05-28T17:39:47.839Z,52.41
2019-05-28T17:42:14.820Z,52.67
2019-05-28T17:44:41.809Z,53.11
2019-05-28T17:47:09.027Z,52.26
2019-05-28T17:49:36.055Z,53.03
2019-05-28T17:52:03.080Z,52.06
2019-05-28T17:54:30.094Z,52.81
2019-05-28T17:56:57.083Z,52.59
2019-05-28T17:59:25.923Z,53.08
2019-05-28T18:01:53.051Z,53.28
2019-05-28T18:04:20.114Z,54.15
2019-05-28T18:06:47.165Z,53.58
2019-05-28T18:09:14.242Z,54.95
2019-05-28T18:11:41.258Z,55.00
2019-05-28T18:14:08.248Z,54.88
2019-05-28T18:16:35.290Z,54.18
2019-05-28T18:19:02.290Z,54.43
2019-05-28T18:21:29.299Z,54.50
2019-05-28T18:23:56.547Z,53.41
2019-05-28T18:26:23.652Z,53.88
2019-05-28T18:28:50.646Z,54.15
2019-05-28T18:31:17.770Z,54.12
2019-05-28T18:33:44.792Z,53.51
2019-05-28T18:36:14.562Z,52.85
2019-05-28T18:38:43.919Z,53.16
2019-05-28T18:41:21.196Z,53.27
2019-05-28T18:43:39.970Z,54.06
2019-05-28T18:46:06.990Z,54.01
2019-05-28T18:48:38.310Z,53.94
2019-05-28T18:51:02.941Z,53.91
2019-05-28T18:53:29.969Z,54.47
2019-05-28T18:55:56.985Z,54.57
2019-05-28T18:58:24.068Z,54.30
2019-05-28T19:00:51.180Z,54.74
2019-05-28T19:03:18.228Z,55.05
2019-05-28T19:05:53.678Z,54.74
2019-05-28T19:08:20.683Z,55.00
2019-05-28T19:10:47.760Z,54.70
2019-05-28T19:13:14.761Z,54.41
2019-05-28T19:15:44.709Z,54.35
2019-05-28T19:18:11.994Z,54.61
2019-05-28T19:20:45.847Z,54.79
2019-05-28T19:23:15.562Z,54.70
2019-05-28T19:25:42.626Z,54.60
2019-05-28T19:28:13.670Z,54.83
2019-05-28T19:30:42.400Z,54.67
2019-05-28T19:33:09.542Z,54.75
2019-05-28T19:35:36.567Z,54.86
2019-05-28T19:38:03.769Z,54.67
2019-05-28T19:40:38.724Z,54.78
2019-05-28T19:43:05.990Z,54.74
2019-05-28T19:45:33.463Z,54.65
2019-05-28T19:48:05.894Z,54.68
2019-05-28T19:50:32.914Z,54.33
2019-05-28T19:52:59.931Z,54.91
2019-05-28T19:55:29.101Z,54.64
2019-05-28T19:57:59.267Z,55.23
2019-05-28T20:00:28.446Z,55.21
2019-05-28T20:02:55.471Z,55.25
2019-05-28T20:05:26.371Z,55.15
2019-05-28T20:07:55.802Z,55.47
2019-05-28T20:10:22.897Z,55.19
2019-05-28T20:12:49.894Z,55.42
2019-05-28T20:15:21.029Z,55.17
2019-05-28T20:17:48.397Z,55.57
2019-05-28T20:20:16.239Z,56.13
2019-05-28T20:22:43.250Z,55.83
2019-05-28T20:25:10.375Z,56.09
2019-05-28T20:27:37.392Z,56.00
2019-05-28T20:30:05.201Z,56.07
2019-05-28T20:32:36.729Z,55.87
2019-05-28T20:35:05.469Z,55.98
2019-05-28T20:37:32.621Z,56.28
2019-05-28T20:39:59.868Z,56.26
2019-05-28T20:42:27.687Z,56.10
2019-05-28T20:44:54.809Z,55.87
2019-05-28T20:47:21.824Z,56.27
2019-05-28T20:49:50.655Z,56.26
2019-05-28T20:52:19.732Z,56.71
2019-05-28T20:54:46.871Z,56.46
2019-05-28T20:57:16.718Z,56.18
2019-05-28T20:59:43.720Z,56.36
2019-05-28T21:02:10.747Z,56.14
2019-05-28T21:04:41.398Z,56.22
2019-05-28T21:07:06.764Z,56.00
2019-05-28T21:09:33.776Z,55.39
2019-05-28T21:12:00.813Z,56.01
2019-05-28T21:14:27.804Z,55.89
2019-05-28T21:16:55.093Z,55.79
2019-05-28T21:19:22.171Z,55.81
2019-05-28T21:21:49.586Z,56.11
2019-05-28T21:24:16.589Z,56.00
2019-05-28T21:26:43.598Z,56.06
2019-05-28T21:29:10.609Z,56.21
2019-05-28T21:31:37.639Z,56.40
2019-05-28T21:34:04.632Z,56.49
2019-05-28T21:36:31.650Z,56.41
2019-05-28T21:38:59.364Z,56.25
2019-05-28T21:41:29.007Z,56.17
2019-05-28T21:43:56.051Z,56.20
2019-05-28T21:46:23.065Z,56.10
2019-05-28T21:48:50.117Z,56.26
2019-05-28T21:51:19.591Z,56.25
2019-05-28T21:53:46.600Z,56.25
2019-05-28T21:56:14.054Z,56.41
2019-05-28T21:58:41.413Z,56.46
2019-05-28T22:01:13.970Z,56.56
2019-05-28T22:03:43.801Z,56.55
2019-05-28T22:06:10.843Z,56.73
2019-05-28T22:08:37.847Z,56.61
2019-05-28T22:11:04.863Z,56.51
2019-05-28T22:13:36.298Z,56.36
2019-05-28T22:16:08.590Z,56.42
2019-05-28T22:18:39.695Z,56.25
2019-05-28T22:21:06.709Z,56.28
2019-05-28T22:23:33.724Z,56.29
2019-05-28T22:26:03.024Z,56.40
2019-05-28T22:28:33.933Z,56.52
2019-05-28T22:31:01.770Z,56.64
2019-05-28T22:33:28.944Z,56.71
2019-05-28T22:35:57.060Z,56.77
2019-05-28T22:38:24.201Z,56.73
2019-05-28T22:40:51.203Z,56.68
2019-05-28T22:43:30.801Z,56.72
2019-05-28T22:45:50.117Z,56.72
2019-05-28T22:48:18.018Z,56.84
2019-05-28T22:50:45.414Z,56.79
2019-05-28T22:53:12.561Z,56.83
2019-05-28T22:55:39.566Z,56.90
2019-05-28T22:58:06.606Z,56.99
2019-05-28T23:00:33.561Z,57.00
2019-05-28T23:03:00.928Z,57.15
2019-05-28T23:05:28.017Z,57.18
2019-05-28T23:07:55.038Z,57.27
2019-05-28T23:10:22.106Z,57.25
2019-05-28T23:12:49.089Z,57.34
2019-05-28T23:15:16.691Z,57.44
2019-05-28T23:17:43.693Z,57.48
2019-05-28T23:20:11.440Z,57.48
2019-05-28T23:22:38.564Z,57.61
2019-05-28T23:25:05.940Z,57.69
2019-05-28T23:27:32.979Z,57.73
2019-05-28T23:29:59.993Z,57.80
2019-05-28T23:32:27.116Z,57.76
2019-05-28T23:34:56.268Z,57.73
2019-05-28T23:37:23.014Z,57.85
2019-05-28T23:39:52.512Z,57.97
2019-05-28T23:42:19.953Z,58.10
2019-05-28T23:44:46.963Z,58.16
2019-05-28T23:47:14.281Z,58.14
2019-05-28T23:49:41.498Z,58.29
2019-05-28T23:52:08.647Z,58.32
2019-05-28T23:54:35.696Z,58.28
2019-05-28T23:57:02.881Z,58.34
2019-05-28T23:59:29.880Z,58.40
